logo dgac
Martes 06 de Diciembre del 2022
Buscar por aerodromo o helipuerto
Ingrese nombre de aeródromo, localidad o designador OACI:
TAF: TAF SCIP 060442Z 0606/0706 23004KT 9999 SCT030 TN18/0610Z TX26/0620Z BECMG 0615/0617 20004KT TEMPO 0608/0615 8000 -SHRA SCT015 BKN100
TAF del 06/12/2022 a las 04:42 UTC
Para mayor información visite www.meteochile.cl
Período de validez: desde el 06 a las 06:00 UTC hasta el 07 a las 06:00 UTC
Viento: dirección 230 grados, velocidad 4 nudos
Visibilidad: 10 km o más
Nubes: Nubosidad parcial a 3000 pies sobre el nivel del aeródromo
Temperatura mínima: 18ºC el 06 a las 10:00 UTC
Temperatura máxima: 26ºC el 06 a las 20:00 UTC
Se espera un cambio entre las 15:00 UTC del 06 y las 17:00 UTC del 06, :
Viento: dirección 200 grados, velocidad 4 nudos
Se espera en forma temporal entre las 08:00 UTC del 06 y las 15:00 UTC del 06:
Visibilidad: 8000 metros
Débil ChubascosLluvia
Nubes: Nubosidad parcial a 1500 pies sobre el nivel del aeródromo
Nubes: Nublado a 10000 pies sobre el nivel del aeródromo